KHIE/HIE METAR and TAF weather

Enter ICAO airport designator
Station Type Date Time Source
KHIE METAR 2020/09/20 13:52 UTC NOAA

KHIE 201352Z AUTO 00000KT 10SM SCT060 07/M02 A3056 RMK AO2 SLP361 T00671017


Station Type Date Time Source
KHIE Decoded METAR 2020/09/20 13:52 UTC NOAA

MT WASHINGTON REGIONAL AIRPORT , NH, United States (KHIE) 44-22N 71-33W 318M
Sep 20, 2020 - 09:52 AM EDT / 2020.09.20 1352 UTC
Wind: Calm:0
Visibility: 10 mile(s):0
Sky conditions: partly cloudy
Temperature: 44.1 F (6.7 C)
Dew Point: 28.9 F (-1.7 C)
Relative Humidity: 54%
Pressure (altimeter): 30.56 in. Hg (1034 hPa)
ob: KHIE 201352Z AUTO 00000KT 10SM SCT060 07/M02 A3056 RMK AO2 SLP361 T00671017
cycle: 14

Station Type Date Time Source
KHIE TAF 2020/09/20 12:22 UTC NOAA

TAF KHIE 201120Z 2012/2112 33004KT P6SM FEW070
FM210800 00000KT 1/2SM FZFG BKN001

Example: see airport list